Ana Sayfa
METAR-TAF:

METAR-TAF

Havaalanları :

Curaçao, Hollanda Antilleri

Enlem: 12-12N, Boylam: 068-58W, yükseklik: 9 m

Güncel hava durumu gözlemi

Rapor saat 17:00 UTC de 14 dakika önce yapıldı.
Rüzgar doğudan 14 kt
Sıcaklık 31°C
Nem 66%
Basınç 1014 hPa
Görüş mesafesi 10 km veya daha fazla
2300 ft yükseklikte az bulutlu

METAR: TNCC 191700Z 09014KT 9999 FEW023 31/24 Q1014 NOSIG

Saat: 13:14 (17:14 UTC)

Tahmin

Rapor saat 09:35 UTC de 7 saat ve 39 dakika önce yapıldı.
Ayın 19'si saat 12 UTC'den ayın 20'si saat 12 UTC'ye kadar geçerli Tahmin
Rüzgar doğudan 16 kt
Görüş mesafesi 10 km veya daha fazla
2000 ft yükseklikte parçalı bulutlu
Olasılık 30% :
Geçici
ayın 19'si saat 12 UTC'den ayın 19'si saat 16 UTC'ye kadar
1500 ft yükseklikte parçalı çok bulutlu

TAF: TNCC 190935Z 1912/2012 10016KT 9999 SCT020 PROB30 TEMPO 1912/1916 BKN015

4.000'den fazla havaalanı için hava durumu gözlemleri ve tahminleri (METAR ve TAF raporları).

Kullanılabilir istasyonlar harita üzerinde sarı ve kırmızı noktalarla gösterilir.

İstasyonun adını görmek için fareyi noktanın üzerinde gezdirin.

Sonrasında hava gözlem ve tahminlerini görmek için tıklayın.

Haritayı değiştirmek için: yaklaştırmak için siyah artı işaretli yeşil düğmeye ve uzaklaştırmak için de eksi işaretli düğmeye hızla tıklayın; bitişik haritalar için yeşil okları kullanın.


METAR-TAF: